Grimstead, Virginia
Current Conditions -  °F | °C
As of 9:15 AM on Thursday 27 Nov 2014 (Local Time) from KW75 Reporting Station
Overcast Overcast  
Wind Chill:   Ceiling: 1000
Heat Index:   Visibility: 10mi
Dew Point:   Wind: 3mph
Humidity: 94%   Direction: 230°SW
Pressure: 30.06"   Gusts: NA
Location:  37.5°N, 76.3°W
Report Text: KW75 271415Z AUTO 23003KT 10SM OVC010 05/04 A3006 RMK AO1 T00450036
Loading
Personal Weather Stations






























Interactive Weather Map New forecast layout! Learn more

10-Day Weather Forecast

Advertisements
Track Severe Weather on mobile